Toyofukumaru — JD2177 — position and weather

sailwx.info

Track history (hours):
 
Tides and Currents Weather Stations Pressure Air Temp Water Temp Dewpoint Dewpoint Depression Visibility Wind Speed Wind Dir Waves Ship Positions

Toyofukumaru

Last reported at 2017-Feb-24 10:33 UTC. Time now 2017-Feb-24 15:21 UTC.
Position N 34°01' E 134°59'.

Length 165 m; draft 6.2 m.

Type: Cargo ship. MMSI: 431200688.

Date/timePositionNaut miles runAvg speedWind from/ knotsBaromVisibWave heightAir tempDewpointWater temp
2017-Feb-24 10:33N 34°01' E 134°59'1919.5
2017-Feb-24 09:33N 34°21' E 134°59'1716.2
2017-Feb-24 08:32N 34°37' E 134°59'120 7.5
2017-Feb-23 16:33N 33°57' E 132°42'1616.2
2017-Feb-23 15:33N 33°46' E 132°27'20 0.9
2017-Feb-22 17:05N 33°38' E 132°05'915.7
2017-Feb-22 16:33N 33°43' E 132°13'1616.2
2017-Feb-22 15:33N 33°50' E 132°31'1817.9
2017-Feb-22 14:33N 34°02' E 132°46'104 6.5
2017-Feb-21 22:32N 34°33' E 134°46'1616.1
2017-Feb-21 21:33N 34°32' E 135°05'2121.0
2017-Feb-21 20:33N 34°12' E 134°59'225 8.3
2017-Feb-20 17:33N 34°56' E 139°27'1818.2
2017-Feb-20 16:33N 35°08' E 139°44'1212.2
2017-Feb-20 15:33N 35°20' E 139°43'1313.5
2017-Feb-20 14:33N 35°31' E 139°52'0 0.2
2017-Feb-20 13:34N 35°31' E 139°52'0 0.1
2017-Feb-20 12:32N 35°31' E 139°52'0 0.0
2017-Feb-20 11:28N 35°31' E 139°52'8 9.1
2017-Feb-20 10:33N 35°25' E 139°45'5 5.1
2017-Feb-20 09:32N 35°23' E 139°39'0 0.0
2017-Feb-20 08:32N 35°23' E 139°39'0 0.0
2017-Feb-20 07:32N 35°23' E 139°39'0 0.0
2017-Feb-20 06:32N 35°23' E 139°39'0 0.0
2017-Feb-20 05:29N 35°23' E 139°39'3 3.8
2017-Feb-20 04:34N 35°24' E 139°43'1817.8
2017-Feb-20 03:34N 35°34' E 140°01'4 1.8
2017-Feb-20 01:31N 35°36' E 140°05'0 0.0
2017-Feb-20 00:31N 35°36' E 140°05'0 0.0
2017-Feb-19 20:31N 35°36' E 140°05'9 9.6
2017-Feb-19 19:34N 35°31' E 139°56'1514.8
2017-Feb-19 18:33N 35°19' E 139°44'1313.2
2017-Feb-19 17:33N 35°06' E 139°46'1919.1
2017-Feb-19 16:33N 34°54' E 139°28'229 7.6
2017-Feb-18 10:17N 33°55' E 134°60'1520.2
2017-Feb-18 09:33N 34°10' E 134°59'2120.6
2017-Feb-18 08:33N 34°30' E 135°02'1413.1
2017-Feb-18 07:28N 34°32' E 134°45'102 7.3
2017-Feb-17 17:34N 34°02' E 132°47'2120.5
2017-Feb-17 16:33N 33°48' E 132°29'1918.5
2017-Feb-17 15:33N 33°41' E 132°08'6 0.3
2017-Feb-16 16:08N 33°44' E 132°14'1219.8
2017-Feb-16 15:33N 33°48' E 132°28'1716.7
2017-Feb-16 14:33N 33°59' E 132°43'114 7.6
2017-Feb-15 23:33N 34°35' E 134°54'1212.1
2017-Feb-15 22:34N 34°26' E 135°03'2019.5
2017-Feb-15 21:34N 34°07' E 134°60'237 7.4
2017-Feb-14 13:31N 35°04' E 139°40'1414.4
2017-Feb-14 12:33N 35°17' E 139°45'8 7.9
2017-Feb-14 11:33N 35°23' E 139°39'  
Track history (hours):
 
Tides and Currents Weather Stations Pressure Air Temp Water Temp Dewpoint Dewpoint Depression Visibility Wind Speed Wind Dir Waves Ship Positions

Toyofukumaru

Last reported at 2017-Feb-24 10:33 UTC. Time now 2017-Feb-24 15:21 UTC.
Position N 34°01' E 134°59'.

Length 165 m; draft 6.2 m.

Type: Cargo ship. MMSI: 431200688.

Date/timePositionNaut miles runAvg speedWind from/ knotsBaromVisibWave heightAir tempDewpointWater temp
2017-Feb-24 10:33N 34°01' E 134°59'1919.5
2017-Feb-24 09:33N 34°21' E 134°59'1716.2
2017-Feb-24 08:32N 34°37' E 134°59'120 7.5
2017-Feb-23 16:33N 33°57' E 132°42'1616.2
2017-Feb-23 15:33N 33°46' E 132°27'20 0.9
2017-Feb-22 17:05N 33°38' E 132°05'915.7
2017-Feb-22 16:33N 33°43' E 132°13'1616.2
2017-Feb-22 15:33N 33°50' E 132°31'1817.9
2017-Feb-22 14:33N 34°02' E 132°46'104 6.5
2017-Feb-21 22:32N 34°33' E 134°46'1616.1
2017-Feb-21 21:33N 34°32' E 135°05'2121.0
2017-Feb-21 20:33N 34°12' E 134°59'225 8.3
2017-Feb-20 17:33N 34°56' E 139°27'1818.2
2017-Feb-20 16:33N 35°08' E 139°44'1212.2
2017-Feb-20 15:33N 35°20' E 139°43'1313.5
2017-Feb-20 14:33N 35°31' E 139°52'0 0.2
2017-Feb-20 13:34N 35°31' E 139°52'0 0.1
2017-Feb-20 12:32N 35°31' E 139°52'0 0.0
2017-Feb-20 11:28N 35°31' E 139°52'8 9.1
2017-Feb-20 10:33N 35°25' E 139°45'5 5.1
2017-Feb-20 09:32N 35°23' E 139°39'0 0.0
2017-Feb-20 08:32N 35°23' E 139°39'0 0.0
2017-Feb-20 07:32N 35°23' E 139°39'0 0.0
2017-Feb-20 06:32N 35°23' E 139°39'0 0.0
2017-Feb-20 05:29N 35°23' E 139°39'3 3.8
2017-Feb-20 04:34N 35°24' E 139°43'1817.8
2017-Feb-20 03:34N 35°34' E 140°01'4 1.8
2017-Feb-20 01:31N 35°36' E 140°05'0 0.0
2017-Feb-20 00:31N 35°36' E 140°05'0 0.0
2017-Feb-19 20:31N 35°36' E 140°05'9 9.6
2017-Feb-19 19:34N 35°31' E 139°56'1514.8
2017-Feb-19 18:33N 35°19' E 139°44'1313.2
2017-Feb-19 17:33N 35°06' E 139°46'1919.1
2017-Feb-19 16:33N 34°54' E 139°28'229 7.6
2017-Feb-18 10:17N 33°55' E 134°60'1520.2
2017-Feb-18 09:33N 34°10' E 134°59'2120.6
2017-Feb-18 08:33N 34°30' E 135°02'1413.1
2017-Feb-18 07:28N 34°32' E 134°45'102 7.3
2017-Feb-17 17:34N 34°02' E 132°47'2120.5
2017-Feb-17 16:33N 33°48' E 132°29'1918.5
2017-Feb-17 15:33N 33°41' E 132°08'6 0.3
2017-Feb-16 16:08N 33°44' E 132°14'1219.8
2017-Feb-16 15:33N 33°48' E 132°28'1716.7
2017-Feb-16 14:33N 33°59' E 132°43'114 7.6
2017-Feb-15 23:33N 34°35' E 134°54'1212.1
2017-Feb-15 22:34N 34°26' E 135°03'2019.5
2017-Feb-15 21:34N 34°07' E 134°60'237 7.4
2017-Feb-14 13:31N 35°04' E 139°40'1414.4
2017-Feb-14 12:33N 35°17' E 139°45'8 7.9
2017-Feb-14 11:33N 35°23' E 139°39'  

Dump ship's entire track history